sensor_id;sensor_type;location;lat;lon;timestamp;pressure;altitude;pressure_sealevel;temperature;humidity
53340;BME280;46212;50.258;19.062;2023-06-10T00:02:13;98208.56;;;16.27;100.00
53340;BME280;46212;50.258;19.062;2023-06-10T00:04:39;98207.53;;;16.30;100.00
53340;BME280;46212;50.258;19.062;2023-06-10T00:07:05;98211.09;;;16.25;100.00
53340;BME280;46212;50.258;19.062;2023-06-10T00:09:36;98212.09;;;16.28;100.00
53340;BME280;46212;50.258;19.062;2023-06-10T00:12:05;98206.81;;;16.30;100.00
53340;BME280;46212;50.258;19.062;2023-06-10T00:14:31;98199.19;;;16.25;100.00
53340;BME280;46212;50.258;19.062;2023-06-10T00:16:57;98209.06;;;16.20;100.00
53340;BME280;46212;50.258;19.062;2023-06-10T00:19:23;98213.09;;;16.19;100.00
53340;BME280;46212;50.258;19.062;2023-06-10T00:21:50;98208.78;;;16.18;100.00
53340;BME280;46212;50.258;19.062;2023-06-10T00:24:17;98212.06;;;16.11;100.00
53340;BME280;46212;50.258;19.062;2023-06-10T00:26:43;98218.91;;;16.10;100.00
53340;BME280;46212;50.258;19.062;2023-06-10T00:29:08;98207.78;;;16.10;100.00
53340;BME280;46212;50.258;19.062;2023-06-10T00:31:34;98210.03;;;16.12;100.00
53340;BME280;46212;50.258;19.062;2023-06-10T00:33:59;98220.16;;;16.15;100.00
53340;BME280;46212;50.258;19.062;2023-06-10T00:36:25;98219.97;;;16.29;100.00
53340;BME280;46212;50.258;19.062;2023-06-10T00:38:50;98216.41;;;16.23;100.00
53340;BME280;46212;50.258;19.062;2023-06-10T00:41:15;98230.31;;;16.18;100.00
53340;BME280;46212;50.258;19.062;2023-06-10T00:43:40;98226.28;;;16.19;100.00
53340;BME280;46212;50.258;19.062;2023-06-10T00:46:06;98230.84;;;16.22;100.00
53340;BME280;46212;50.258;19.062;2023-06-10T00:48:32;98231.31;;;16.09;100.00
53340;BME280;46212;50.258;19.062;2023-06-10T00:50:57;98235.59;;;16.05;100.00
53340;BME280;46212;50.258;19.062;2023-06-10T00:53:23;98236.34;;;16.05;100.00
53340;BME280;46212;50.258;19.062;2023-06-10T00:55:48;98236.56;;;15.96;100.00
53340;BME280;46212;50.258;19.062;2023-06-10T00:58:14;98230.19;;;15.79;100.00
53340;BME280;46212;50.258;19.062;2023-06-10T01:00:40;98232.53;;;15.91;100.00
53340;BME280;46212;50.258;19.062;2023-06-10T01:03:05;98240.13;;;15.97;100.00
53340;BME280;46212;50.258;19.062;2023-06-10T01:05:33;98236.34;;;16.00;100.00
53340;BME280;46212;50.258;19.062;2023-06-10T01:08:03;98242.44;;;16.09;100.00
53340;BME280;46212;50.258;19.062;2023-06-10T01:13:01;98240.47;;;16.26;100.00
53340;BME280;46212;50.258;19.062;2023-06-10T01:15:33;98239.44;;;16.18;100.00
53340;BME280;46212;50.258;19.062;2023-06-10T01:18:09;98238.19;;;16.19;100.00
53340;BME280;46212;50.258;19.062;2023-06-10T01:20:35;98231.84;;;16.19;100.00
53340;BME280;46212;50.258;19.062;2023-06-10T01:23:05;98232.84;;;16.16;100.00
53340;BME280;46212;50.258;19.062;2023-06-10T01:25:30;98239.19;;;16.16;100.00
53340;BME280;46212;50.258;19.062;2023-06-10T01:28:18;98231.06;;;16.18;100.00
53340;BME280;46212;50.258;19.062;2023-06-10T01:33:17;98241.44;;;16.12;100.00
53340;BME280;46212;50.258;19.062;2023-06-10T01:35:43;98238.41;;;16.10;100.00
53340;BME280;46212;50.258;19.062;2023-06-10T01:38:10;98244.75;;;16.11;100.00
53340;BME280;46212;50.258;19.062;2023-06-10T01:40:35;98239.44;;;16.13;100.00
53340;BME280;46212;50.258;19.062;2023-06-10T01:43:01;98245.00;;;16.18;100.00
53340;BME280;46212;50.258;19.062;2023-06-10T01:45:27;98239.94;;;16.17;100.00
53340;BME280;46212;50.258;19.062;2023-06-10T01:47:52;98241.47;;;16.18;100.00
53340;BME280;46212;50.258;19.062;2023-06-10T01:50:17;98244.22;;;16.12;100.00
53340;BME280;46212;50.258;19.062;2023-06-10T01:52:42;98240.44;;;16.10;100.00
53340;BME280;46212;50.258;19.062;2023-06-10T01:55:08;98247.25;;;16.14;100.00
53340;BME280;46212;50.258;19.062;2023-06-10T01:57:33;98243.47;;;16.12;100.00
53340;BME280;46212;50.258;19.062;2023-06-10T01:59:58;98248.31;;;16.17;100.00
53340;BME280;46212;50.258;19.062;2023-06-10T02:02:23;98250.31;;;16.16;100.00
53340;BME280;46212;50.258;19.062;2023-06-10T02:04:49;98251.81;;;16.12;100.00
53340;BME280;46212;50.258;19.062;2023-06-10T02:07:15;98252.84;;;16.14;100.00
53340;BME280;46212;50.258;19.062;2023-06-10T02:09:40;98249.56;;;16.16;100.00
53340;BME280;46212;50.258;19.062;2023-06-10T02:12:05;98253.88;;;16.17;100.00
53340;BME280;46212;50.258;19.062;2023-06-10T02:14:31;98256.66;;;16.17;100.00
53340;BME280;46212;50.258;19.062;2023-06-10T02:16:57;98262.47;;;16.13;100.00
53340;BME280;46212;50.258;19.062;2023-06-10T02:19:22;98253.38;;;16.18;100.00
53340;BME280;46212;50.258;19.062;2023-06-10T02:21:48;98256.19;;;16.29;100.00
53340;BME280;46212;50.258;19.062;2023-06-10T02:24:13;98260.75;;;16.32;100.00
53340;BME280;46212;50.258;19.062;2023-06-10T02:26:39;98267.06;;;16.27;100.00
53340;BME280;46212;50.258;19.062;2023-06-10T02:29:05;98265.56;;;16.26;100.00
53340;BME280;46212;50.258;19.062;2023-06-10T02:31:30;98263.50;;;16.21;100.00
53340;BME280;46212;50.258;19.062;2023-06-10T02:33:55;98267.06;;;16.27;100.00
53340;BME280;46212;50.258;19.062;2023-06-10T02:36:21;98259.22;;;16.31;100.00
53340;BME280;46212;50.258;19.062;2023-06-10T02:38:49;98265.03;;;16.28;100.00
53340;BME280;46212;50.258;19.062;2023-06-10T02:41:14;98265.03;;;16.28;100.00
53340;BME280;46212;50.258;19.062;2023-06-10T02:43:39;98272.91;;;16.29;100.00
53340;BME280;46212;50.258;19.062;2023-06-10T02:46:05;98274.16;;;16.23;100.00
53340;BME280;46212;50.258;19.062;2023-06-10T02:48:30;98269.59;;;16.25;100.00
53340;BME280;46212;50.258;19.062;2023-06-10T02:50:55;98273.88;;;16.21;100.00
53340;BME280;46212;50.258;19.062;2023-06-10T02:53:21;98277.72;;;16.29;100.00
53340;BME280;46212;50.258;19.062;2023-06-10T02:55:46;98276.97;;;16.28;100.00
53340;BME280;46212;50.258;19.062;2023-06-10T02:58:11;98279.72;;;16.23;100.00
53340;BME280;46212;50.258;19.062;2023-06-10T03:00:37;98274.16;;;16.23;100.00
53340;BME280;46212;50.258;19.062;2023-06-10T03:03:02;98275.19;;;16.25;100.00
53340;BME280;46212;50.258;19.062;2023-06-10T03:05:28;98277.72;;;16.29;100.00
53340;BME280;46212;50.258;19.062;2023-06-10T03:07:54;98264.28;;;16.27;100.00
53340;BME280;46212;50.258;19.062;2023-06-10T03:10:19;98270.13;;;16.35;100.00
53340;BME280;46212;50.258;19.062;2023-06-10T03:12:44;98271.66;;;16.36;100.00
53340;BME280;46212;50.258;19.062;2023-06-10T03:15:10;98270.91;;;16.35;100.00
53340;BME280;46212;50.258;19.062;2023-06-10T03:17:35;98269.91;;;16.38;100.00
53340;BME280;46212;50.258;19.062;2023-06-10T03:20:00;98272.69;;;16.38;100.00
53340;BME280;46212;50.258;19.062;2023-06-10T03:22:26;98270.91;;;16.41;100.00
53340;BME280;46212;50.258;19.062;2023-06-10T03:24:51;98284.13;;;16.52;100.00
53340;BME280;46212;50.258;19.062;2023-06-10T03:27:16;98278.34;;;16.55;100.00
53340;BME280;46212;50.258;19.062;2023-06-10T03:29:42;98285.94;;;16.60;100.00
53340;BME280;46212;50.258;19.062;2023-06-10T03:32:08;98281.56;;;16.54;100.00
53340;BME280;46212;50.258;19.062;2023-06-10T03:34:33;98290.75;;;16.65;100.00
53340;BME280;46212;50.258;19.062;2023-06-10T03:36:58;98297.84;;;16.61;100.00
53340;BME280;46212;50.258;19.062;2023-06-10T03:39:24;98290.94;;;16.51;100.00
53340;BME280;46212;50.258;19.062;2023-06-10T03:41:50;98295.00;;;16.49;100.00
53340;BME280;46212;50.258;19.062;2023-06-10T03:44:15;98305.88;;;16.42;100.00
53340;BME280;46212;50.258;19.062;2023-06-10T03:46:40;98302.88;;;16.45;100.00
53340;BME280;46212;50.258;19.062;2023-06-10T03:49:06;98296.53;;;16.51;100.00
53340;BME280;46212;50.258;19.062;2023-06-10T03:51:31;98308.72;;;16.59;100.00
53340;BME280;46212;50.258;19.062;2023-06-10T03:53:57;98308.00;;;16.64;100.00
53340;BME280;46212;50.258;19.062;2023-06-10T03:56:22;98306.50;;;16.74;100.00
53340;BME280;46212;50.258;19.062;2023-06-10T03:58:47;98305.72;;;16.79;100.00
53340;BME280;46212;50.258;19.062;2023-06-10T04:01:12;98309.81;;;16.89;100.00
53340;BME280;46212;50.258;19.062;2023-06-10T04:03:43;98308.78;;;16.92;100.00
53340;BME280;46212;50.258;19.062;2023-06-10T04:06:08;98311.81;;;16.94;100.00
53340;BME280;46212;50.258;19.062;2023-06-10T04:08:34;98304.75;;;16.98;100.00
53340;BME280;46212;50.258;19.062;2023-06-10T04:10:59;98307.25;;;16.96;100.00
53340;BME280;46212;50.258;19.062;2023-06-10T04:13:24;98306.78;;;16.98;100.00
53340;BME280;46212;50.258;19.062;2023-06-10T04:15:50;98312.34;;;16.98;100.00
53340;BME280;46212;50.258;19.062;2023-06-10T04:18:15;98311.09;;;17.05;100.00
53340;BME280;46212;50.258;19.062;2023-06-10T04:20:41;98314.88;;;17.07;100.00
53340;BME280;46212;50.258;19.062;2023-06-10T04:23:06;98313.88;;;17.10;100.00
53340;BME280;46212;50.258;19.062;2023-06-10T04:25:32;98313.38;;;17.17;100.00
53340;BME280;46212;50.258;19.062;2023-06-10T04:27:57;98318.94;;;17.28;100.00
53340;BME280;46212;50.258;19.062;2023-06-10T04:30:22;98316.94;;;17.34;100.00
53340;BME280;46212;50.258;19.062;2023-06-10T04:32:47;98317.91;;;17.42;100.00
53340;BME280;46212;50.258;19.062;2023-06-10T04:35:13;98317.16;;;17.42;100.00
53340;BME280;46212;50.258;19.062;2023-06-10T04:37:41;98325.78;;;17.33;100.00
53340;BME280;46212;50.258;19.062;2023-06-10T04:40:07;98313.88;;;17.32;100.00
53340;BME280;46212;50.258;19.062;2023-06-10T04:42:33;98316.66;;;17.32;100.00
53340;BME280;46212;50.258;19.062;2023-06-10T04:44:58;98316.16;;;17.34;100.00
53340;BME280;46212;50.258;19.062;2023-06-10T04:47:24;98318.19;;;17.33;100.00
53340;BME280;46212;50.258;19.062;2023-06-10T04:49:49;98324.75;;;17.41;100.00
53340;BME280;46212;50.258;19.062;2023-06-10T04:52:14;98314.63;;;17.44;100.00
53340;BME280;46212;50.258;19.062;2023-06-10T04:54:39;98315.63;;;17.46;100.00
53340;BME280;46212;50.258;19.062;2023-06-10T04:57:06;98321.75;;;17.56;100.00
53340;BME280;46212;50.258;19.062;2023-06-10T04:59:32;98320.22;;;17.44;100.00
53340;BME280;46212;50.258;19.062;2023-06-10T05:01:58;98321.97;;;17.52;100.00
53340;BME280;46212;50.258;19.062;2023-06-10T05:04:23;98321.44;;;17.54;100.00
53340;BME280;46212;50.258;19.062;2023-06-10T05:06:49;98328.84;;;17.63;100.00
53340;BME280;46212;50.258;19.062;2023-06-10T05:09:14;98331.38;;;17.72;100.00
53340;BME280;46212;50.258;19.062;2023-06-10T05:11:40;98325.25;;;17.73;100.00
53340;BME280;46212;50.258;19.062;2023-06-10T05:14:05;98333.13;;;17.80;100.00
53340;BME280;46212;50.258;19.062;2023-06-10T05:16:31;98325.22;;;18.01;98.75
53340;BME280;46212;50.258;19.062;2023-06-10T05:18:56;98326.69;;;18.13;97.69
53340;BME280;46212;50.258;19.062;2023-06-10T05:21:21;98329.44;;;18.19;97.15
53340;BME280;46212;50.258;19.062;2023-06-10T05:23:46;98328.19;;;18.20;96.94
53340;BME280;46212;50.258;19.062;2023-06-10T05:26:12;98325.69;;;18.11;97.17
53340;BME280;46212;50.258;19.062;2023-06-10T05:28:37;98325.69;;;18.11;96.76
53340;BME280;46212;50.258;19.062;2023-06-10T05:31:02;98324.91;;;18.10;95.99
53340;BME280;46212;50.258;19.062;2023-06-10T05:33:27;98332.78;;;18.12;94.33
53340;BME280;46212;50.258;19.062;2023-06-10T05:35:53;98333.03;;;18.08;95.74
53340;BME280;46212;50.258;19.062;2023-06-10T05:38:18;98343.69;;;18.15;95.55
53340;BME280;46212;50.258;19.062;2023-06-10T05:40:43;98336.56;;;18.14;95.43
53340;BME280;46212;50.258;19.062;2023-06-10T05:43:09;98345.97;;;18.22;95.51
53340;BME280;46212;50.258;19.062;2023-06-10T05:45:34;98340.88;;;18.26;95.17
53340;BME280;46212;50.258;19.062;2023-06-10T05:47:59;98348.47;;;18.31;95.30
53340;BME280;46212;50.258;19.062;2023-06-10T05:50:25;98349.72;;;18.30;95.33
53340;BME280;46212;50.258;19.062;2023-06-10T05:52:50;98357.59;;;18.37;95.12
53340;BME280;46212;50.258;19.062;2023-06-10T05:55:18;98359.59;;;18.42;94.71
53340;BME280;46212;50.258;19.062;2023-06-10T05:57:43;98351.97;;;18.48;94.36
53340;BME280;46212;50.258;19.062;2023-06-10T06:00:09;98358.03;;;18.52;94.33
53340;BME280;46212;50.258;19.062;2023-06-10T06:02:34;98360.06;;;18.58;93.70
53340;BME280;46212;50.258;19.062;2023-06-10T06:04:59;98359.78;;;18.67;92.55
53340;BME280;46212;50.258;19.062;2023-06-10T06:07:25;98358.97;;;18.72;92.40
53340;BME280;46212;50.258;19.062;2023-06-10T06:09:50;98369.38;;;18.71;92.27
53340;BME280;46212;50.258;19.062;2023-06-10T06:12:15;98363.50;;;18.80;92.65
53340;BME280;46212;50.258;19.062;2023-06-10T06:14:40;98366.00;;;18.89;93.00
53340;BME280;46212;50.258;19.062;2023-06-10T06:17:06;98363.66;;;18.93;91.50
53340;BME280;46212;50.258;19.062;2023-06-10T06:19:31;98372.63;;;18.86;91.66
53340;BME280;46212;50.258;19.062;2023-06-10T06:21:56;98371.47;;;18.71;91.98
53340;BME280;46212;50.258;19.062;2023-06-10T06:24:22;98370.69;;;18.65;91.61
53340;BME280;46212;50.258;19.062;2023-06-10T06:26:47;98375.34;;;18.45;92.78
53340;BME280;46212;50.258;19.062;2023-06-10T06:29:12;98370.78;;;18.37;94.18
53340;BME280;46212;50.258;19.062;2023-06-10T06:31:37;98375.91;;;18.33;94.66
53340;BME280;46212;50.258;19.062;2023-06-10T06:34:03;98390.91;;;18.24;94.45
53340;BME280;46212;50.258;19.062;2023-06-10T06:36:28;98401.63;;;18.09;95.44
53340;BME280;46212;50.258;19.062;2023-06-10T06:38:53;98405.69;;;18.08;95.56
53340;BME280;46212;50.258;19.062;2023-06-10T06:41:18;98409.28;;;17.97;95.70
53340;BME280;46212;50.258;19.062;2023-06-10T06:43:44;98404.19;;;17.96;96.66
53340;BME280;46212;50.258;19.062;2023-06-10T06:46:09;98414.88;;;18.03;96.87
53340;BME280;46212;50.258;19.062;2023-06-10T06:48:35;98404.72;;;18.00;96.41
53340;BME280;46212;50.258;19.062;2023-06-10T06:51:00;98405.75;;;17.91;97.13
53340;BME280;46212;50.258;19.062;2023-06-10T06:53:25;98414.13;;;17.91;97.36
53340;BME280;46212;50.258;19.062;2023-06-10T06:55:50;98415.09;;;18.05;98.06
53340;BME280;46212;50.258;19.062;2023-06-10T06:58:16;98415.09;;;18.05;97.33
53340;BME280;46212;50.258;19.062;2023-06-10T07:00:41;98401.16;;;17.99;97.90
53340;BME280;46212;50.258;19.062;2023-06-10T07:03:06;98416.09;;;18.08;96.68
53340;BME280;46212;50.258;19.062;2023-06-10T07:05:31;98405.97;;;18.10;96.97
53340;BME280;46212;50.258;19.062;2023-06-10T07:07:57;98417.09;;;18.27;97.10
53340;BME280;46212;50.258;19.062;2023-06-10T07:10:25;98417.31;;;18.45;95.73
53340;BME280;46212;50.258;19.062;2023-06-10T07:12:51;98423.88;;;18.59;94.88
53340;BME280;46212;50.258;19.062;2023-06-10T07:15:16;98424.06;;;18.72;95.04
53340;BME280;46212;50.258;19.062;2023-06-10T07:17:42;98416.84;;;18.93;94.76
53340;BME280;46212;50.258;19.062;2023-06-10T07:20:07;98421.84;;;19.12;94.23
53340;BME280;46212;50.258;19.062;2023-06-10T07:22:33;98431.91;;;19.26;92.92
53340;BME280;46212;50.258;19.062;2023-06-10T07:24:58;98428.94;;;19.18;93.51
53340;BME280;46212;50.258;19.062;2023-06-10T07:27:23;98434.44;;;19.29;93.64
53340;BME280;46212;50.258;19.062;2023-06-10T07:29:48;98436.69;;;19.36;93.09
53340;BME280;46212;50.258;19.062;2023-06-10T07:32:14;98429.25;;;19.50;91.59
53340;BME280;46212;50.258;19.062;2023-06-10T07:34:39;98432.19;;;19.63;88.85
53340;BME280;46212;50.258;19.062;2023-06-10T07:37:04;98436.03;;;19.60;88.79
53340;BME280;46212;50.258;19.062;2023-06-10T07:39:30;98428.94;;;19.53;87.84
53340;BME280;46212;50.258;19.062;2023-06-10T07:41:55;98425.06;;;19.62;87.75
53340;BME280;46212;50.258;19.062;2023-06-10T07:44:22;98433.00;;;19.58;86.85
53340;BME280;46212;50.258;19.062;2023-06-10T07:46:47;98429.84;;;19.67;87.45
53340;BME280;46212;50.258;19.062;2023-06-10T07:49:12;98438.53;;;19.69;86.56
53340;BME280;46212;50.258;19.062;2023-06-10T07:51:38;98438.97;;;19.73;87.03
53340;BME280;46212;50.258;19.062;2023-06-10T07:54:03;98432.47;;;19.89;87.10
53340;BME280;46212;50.258;19.062;2023-06-10T07:56:28;98441.22;;;20.10;86.68
53340;BME280;46212;50.258;19.062;2023-06-10T07:58:53;98442.63;;;20.22;86.14
53340;BME280;46212;50.258;19.062;2023-06-10T08:01:19;98450.13;;;20.38;85.34
53340;BME280;46212;50.258;19.062;2023-06-10T08:03:44;98444.56;;;20.57;85.51
53340;BME280;46212;50.258;19.062;2023-06-10T08:06:09;98443.69;;;20.67;83.83
53340;BME280;46212;50.258;19.062;2023-06-10T08:08:36;98445.81;;;20.80;83.06
53340;BME280;46212;50.258;19.062;2023-06-10T08:11:06;98442.09;;;20.91;82.37
53340;BME280;46212;50.258;19.062;2023-06-10T08:13:32;98455.28;;;20.77;83.57
53340;BME280;46212;50.258;19.062;2023-06-10T08:15:57;98450.38;;;21.02;81.60
53340;BME280;46212;50.258;19.062;2023-06-10T08:18:22;98447.50;;;21.07;80.64
53340;BME280;46212;50.258;19.062;2023-06-10T08:20:47;98450.88;;;21.25;80.35
53340;BME280;46212;50.258;19.062;2023-06-10T08:23:13;98452.28;;;21.31;79.97
53340;BME280;46212;50.258;19.062;2023-06-10T08:25:39;98458.28;;;21.41;80.71
53340;BME280;46212;50.258;19.062;2023-06-10T08:28:04;98454.59;;;21.64;81.28
53340;BME280;46212;50.258;19.062;2023-06-10T08:30:29;98456.34;;;21.99;80.37
53340;BME280;46212;50.258;19.062;2023-06-10T08:32:55;98453.69;;;22.07;79.45
53340;BME280;46212;50.258;19.062;2023-06-10T08:35:20;98457.50;;;22.22;77.63
53340;BME280;46212;50.258;19.062;2023-06-10T08:37:46;98461.47;;;22.27;77.20
53340;BME280;46212;50.258;19.062;2023-06-10T08:40:11;98456.94;;;22.37;75.46
53340;BME280;46212;50.258;19.062;2023-06-10T08:42:43;98460.31;;;22.49;74.69
53340;BME280;46212;50.258;19.062;2023-06-10T08:45:10;98463.69;;;22.60;75.21
53340;BME280;46212;50.258;19.062;2023-06-10T08:47:38;98457.19;;;22.79;74.69
53340;BME280;46212;50.258;19.062;2023-06-10T08:50:04;98464.53;;;22.95;74.87
53340;BME280;46212;50.258;19.062;2023-06-10T08:52:33;98464.28;;;23.06;73.13
53340;BME280;46212;50.258;19.062;2023-06-10T08:55:00;98465.38;;;23.03;72.70
53340;BME280;46212;50.258;19.062;2023-06-10T08:57:27;98468.00;;;23.01;74.11
53340;BME280;46212;50.258;19.062;2023-06-10T08:59:53;98470.13;;;23.21;73.68
53340;BME280;46212;50.258;19.062;2023-06-10T09:02:20;98465.47;;;23.57;73.35
53340;BME280;46212;50.258;19.062;2023-06-10T09:04:46;98467.56;;;23.77;71.59
53340;BME280;46212;50.258;19.062;2023-06-10T09:07:11;98465.22;;;23.89;71.41
53340;BME280;46212;50.258;19.062;2023-06-10T09:09:37;98471.81;;;23.92;70.48
53340;BME280;46212;50.258;19.062;2023-06-10T09:12:02;98473.16;;;23.91;69.27
53340;BME280;46212;50.258;19.062;2023-06-10T09:14:28;98474.09;;;23.72;69.67
53340;BME280;46212;50.258;19.062;2023-06-10T09:16:53;98463.56;;;23.73;69.74
53340;BME280;46212;50.258;19.062;2023-06-10T09:19:22;98471.06;;;23.50;69.87
53340;BME280;46212;50.258;19.062;2023-06-10T09:21:48;98468.63;;;23.54;70.53
53340;BME280;46212;50.258;19.062;2023-06-10T09:24:13;98468.16;;;23.63;70.41
53340;BME280;46212;50.258;19.062;2023-06-10T09:26:39;98463.22;;;23.56;71.81
53340;BME280;46212;50.258;19.062;2023-06-10T09:29:04;98454.50;;;23.67;70.15
53340;BME280;46212;50.258;19.062;2023-06-10T09:31:30;98464.34;;;23.73;70.99
53340;BME280;46212;50.258;19.062;2023-06-10T09:34:04;98458.34;;;23.98;69.90
53340;BME280;46212;50.258;19.062;2023-06-10T09:36:29;98460.75;;;23.94;69.89
53340;BME280;46212;50.258;19.062;2023-06-10T09:38:56;98467.56;;;23.98;68.37
53340;BME280;46212;50.258;19.062;2023-06-10T09:41:21;98467.56;;;23.98;68.13
53340;BME280;46212;50.258;19.062;2023-06-10T09:43:47;98461.88;;;24.11;68.05
53340;BME280;46212;50.258;19.062;2023-06-10T09:46:17;98457.78;;;24.20;67.45
53340;BME280;46212;50.258;19.062;2023-06-10T09:48:43;98461.94;;;24.19;67.58
53340;BME280;46212;50.258;19.062;2023-06-10T09:51:09;98466.34;;;24.27;66.16
53340;BME280;46212;50.258;19.062;2023-06-10T09:53:35;98455.97;;;24.22;66.53
53340;BME280;46212;50.258;19.062;2023-06-10T09:56:00;98462.28;;;24.15;66.71
53340;BME280;46212;50.258;19.062;2023-06-10T09:58:35;98459.13;;;24.19;65.58
53340;BME280;46212;50.258;19.062;2023-06-10T10:01:04;98466.06;;;24.39;63.90
53340;BME280;46212;50.258;19.062;2023-06-10T10:03:29;98470.09;;;24.30;63.28
53340;BME280;46212;50.258;19.062;2023-06-10T10:05:58;98464.97;;;24.21;63.16
53340;BME280;46212;50.258;19.062;2023-06-10T10:08:24;98471.56;;;24.23;63.41
53340;BME280;46212;50.258;19.062;2023-06-10T10:10:49;98460.88;;;23.88;61.78
53340;BME280;46212;50.258;19.062;2023-06-10T10:13:15;98462.25;;;23.95;63.19
53340;BME280;46212;50.258;19.062;2023-06-10T10:15:40;98468.66;;;23.95;62.56
53340;BME280;46212;50.258;19.062;2023-06-10T10:18:07;98471.88;;;24.12;63.35
53340;BME280;46212;50.258;19.062;2023-06-10T10:20:33;98477.13;;;24.37;62.36
53340;BME280;46212;50.258;19.062;2023-06-10T10:22:59;98471.19;;;24.48;61.23
53340;BME280;46212;50.258;19.062;2023-06-10T10:25:38;98467.88;;;24.64;61.13
53340;BME280;46212;50.258;19.062;2023-06-10T10:30:30;98464.72;;;24.68;60.20
53340;BME280;46212;50.258;19.062;2023-06-10T10:33:06;98466.16;;;24.82;60.06
53340;BME280;46212;50.258;19.062;2023-06-10T10:35:34;98460.75;;;24.92;60.59
53340;BME280;46212;50.258;19.062;2023-06-10T10:38:01;98463.81;;;25.09;57.00
53340;BME280;46212;50.258;19.062;2023-06-10T10:40:27;98459.44;;;25.00;57.39
53340;BME280;46212;50.258;19.062;2023-06-10T10:42:54;98459.63;;;24.95;58.04
53340;BME280;46212;50.258;19.062;2023-06-10T10:45:21;98457.16;;;24.91;56.75
53340;BME280;46212;50.258;19.062;2023-06-10T10:47:46;98459.81;;;24.97;57.98
53340;BME280;46212;50.258;19.062;2023-06-10T10:50:17;98462.22;;;24.85;58.16
53340;BME280;46212;50.258;19.062;2023-06-10T10:52:51;98459.13;;;24.75;58.14
53340;BME280;46212;50.258;19.062;2023-06-10T10:55:17;98471.53;;;24.72;58.49
53340;BME280;46212;50.258;19.062;2023-06-10T10:57:43;98463.84;;;24.80;57.70
53340;BME280;46212;50.258;19.062;2023-06-10T11:00:08;98466.91;;;24.54;57.32
53340;BME280;46212;50.258;19.062;2023-06-10T11:05:00;98456.84;;;23.97;60.14
53340;BME280;46212;50.258;19.062;2023-06-10T11:07:26;98465.56;;;23.65;61.63
53340;BME280;46212;50.258;19.062;2023-06-10T11:09:58;98443.97;;;23.67;61.49
53340;BME280;46212;50.258;19.062;2023-06-10T11:12:24;98445.84;;;23.65;62.21
53340;BME280;46212;50.258;19.062;2023-06-10T11:14:56;98449.13;;;23.76;62.01
53340;BME280;46212;50.258;19.062;2023-06-10T11:17:21;98440.53;;;24.03;61.51
53340;BME280;46212;50.258;19.062;2023-06-10T11:19:47;98445.91;;;24.14;60.78
53340;BME280;46212;50.258;19.062;2023-06-10T11:22:18;98443.06;;;24.35;60.45
53340;BME280;46212;50.258;19.062;2023-06-10T11:24:50;98439.50;;;24.70;59.90
53340;BME280;46212;50.258;19.062;2023-06-10T11:27:19;98441.38;;;25.03;59.98
53340;BME280;46212;50.258;19.062;2023-06-10T11:32:28;98447.75;;;25.40;58.38
53340;BME280;46212;50.258;19.062;2023-06-10T11:34:55;98439.00;;;25.22;58.50
53340;BME280;46212;50.258;19.062;2023-06-10T11:37:21;98448.50;;;25.40;57.27
53340;BME280;46212;50.258;19.062;2023-06-10T11:39:46;98435.31;;;25.43;57.33
53340;BME280;46212;50.258;19.062;2023-06-10T11:42:12;98437.19;;;25.48;57.34
53340;BME280;46212;50.258;19.062;2023-06-10T11:44:37;98443.66;;;25.78;57.09
53340;BME280;46212;50.258;19.062;2023-06-10T11:47:03;98439.56;;;26.10;56.66
53340;BME280;46212;50.258;19.062;2023-06-10T11:49:29;98436.34;;;26.36;55.48
53340;BME280;46212;50.258;19.062;2023-06-10T11:51:54;98432.56;;;26.33;55.36
53340;BME280;46212;50.258;19.062;2023-06-10T11:54:20;98430.13;;;26.37;54.22
53340;BME280;46212;50.258;19.062;2023-06-10T11:56:47;98428.97;;;26.33;53.63
53340;BME280;46212;50.258;19.062;2023-06-10T11:59:13;98422.56;;;26.32;52.45
53340;BME280;46212;50.258;19.062;2023-06-10T12:01:42;98425.63;;;26.19;51.94
53340;BME280;46212;50.258;19.062;2023-06-10T12:04:08;98417.28;;;25.99;52.52
53340;BME280;46212;50.258;19.062;2023-06-10T12:09:29;98421.06;;;26.31;54.42
53340;BME280;46212;50.258;19.062;2023-06-10T12:12:12;98419.47;;;26.76;54.49
53340;BME280;46212;50.258;19.062;2023-06-10T12:17:15;98425.09;;;27.31;50.51
53340;BME280;46212;50.258;19.062;2023-06-10T12:19:40;98426.38;;;27.37;49.81
53340;BME280;46212;50.258;19.062;2023-06-10T12:22:05;98426.59;;;27.32;50.79
53340;BME280;46212;50.258;19.062;2023-06-10T12:24:31;98419.72;;;27.50;50.29
53340;BME280;46212;50.258;19.062;2023-06-10T12:26:56;98412.44;;;27.64;48.60
53340;BME280;46212;50.258;19.062;2023-06-10T12:29:24;98423.31;;;27.75;49.85
53340;BME280;46212;50.258;19.062;2023-06-10T12:31:56;98417.66;;;28.00;46.49
53340;BME280;46212;50.258;19.062;2023-06-10T12:34:29;98416.63;;;28.13;47.42
53340;BME280;46212;50.258;19.062;2023-06-10T12:36:55;98412.28;;;28.12;47.92
53340;BME280;46212;50.258;19.062;2023-06-10T12:39:20;98410.22;;;28.29;46.49
53340;BME280;46212;50.258;19.062;2023-06-10T12:41:49;98413.84;;;28.47;46.57
53340;BME280;46212;50.258;19.062;2023-06-10T12:44:16;98418.91;;;28.48;46.41
53340;BME280;46212;50.258;19.062;2023-06-10T12:46:41;98410.78;;;28.70;45.23
53340;BME280;46212;50.258;19.062;2023-06-10T12:49:06;98415.44;;;28.75;44.37
53340;BME280;46212;50.258;19.062;2023-06-10T12:51:32;98412.34;;;28.63;45.76
53340;BME280;46212;50.258;19.062;2023-06-10T12:53:59;98412.34;;;28.63;45.00
53340;BME280;46212;50.258;19.062;2023-06-10T12:56:24;98407.41;;;28.98;44.78
53340;BME280;46212;50.258;19.062;2023-06-10T12:58:49;98409.03;;;29.35;44.58